createdAt,value
2023-04-20T00:01:13.274Z,14.3
2023-04-20T00:04:13.282Z,14.6
2023-04-20T00:07:13.286Z,13.6
2023-04-20T00:10:13.292Z,14.2
2023-04-20T00:13:13.345Z,13
2023-04-20T00:16:13.333Z,13.5
2023-04-20T00:19:13.305Z,13.9
2023-04-20T00:22:13.316Z,12.7
2023-04-20T00:25:13.317Z,12.5
2023-04-20T00:28:13.333Z,13.7
2023-04-20T00:31:13.360Z,14.5
2023-04-20T00:34:13.324Z,13.5
2023-04-20T00:37:13.326Z,15.9
2023-04-20T00:40:13.330Z,13.9
2023-04-20T00:43:13.351Z,15
2023-04-20T00:46:13.362Z,13.9
2023-04-20T00:49:13.345Z,13.5
2023-04-20T00:52:13.344Z,14.1
2023-04-20T00:55:13.353Z,15.6
2023-04-20T00:58:13.380Z,13.8
2023-04-20T01:01:13.361Z,14.6
2023-04-20T01:04:13.518Z,17.4
2023-04-20T01:07:13.371Z,17.2
2023-04-20T01:10:13.374Z,15.5
2023-04-20T01:13:13.398Z,14.5
2023-04-20T01:16:13.398Z,15.5
2023-04-20T01:19:13.381Z,14.6
2023-04-20T01:22:13.389Z,14.9
2023-04-20T01:25:13.398Z,14.3
2023-04-20T01:28:13.418Z,16.3
2023-04-20T01:31:13.483Z,16.3
2023-04-20T01:34:13.412Z,15.3
2023-04-20T01:37:13.420Z,15.6
2023-04-20T01:40:13.409Z,15.6
2023-04-20T01:43:13.435Z,15.2
2023-04-20T01:46:13.441Z,13.7
2023-04-20T01:49:13.428Z,16.3
2023-04-20T01:52:13.433Z,15.3
2023-04-20T01:55:13.449Z,15.9
2023-04-20T01:58:13.459Z,15.2
2023-04-20T02:01:13.489Z,13.9
2023-04-20T02:04:13.484Z,17.6
2023-04-20T02:07:13.463Z,16
2023-04-20T02:10:13.480Z,16
2023-04-20T02:13:13.490Z,16.4
2023-04-20T02:16:13.483Z,17.2
2023-04-20T02:19:13.483Z,14.9
2023-04-20T02:22:13.466Z,15.6
2023-04-20T02:25:13.489Z,17.2
2023-04-20T02:28:13.504Z,18.8
2023-04-20T02:31:13.535Z,16.4
2023-04-20T02:34:13.503Z,18.3
2023-04-20T02:37:13.506Z,16.6
2023-04-20T02:40:13.517Z,15.7
2023-04-20T02:43:13.523Z,17.6
2023-04-20T02:46:13.531Z,16.1
2023-04-20T02:49:13.528Z,15.7
2023-04-20T02:52:13.524Z,15.6
2023-04-20T02:55:13.526Z,15.9
2023-04-20T02:58:13.542Z,14.8
2023-04-20T03:01:13.537Z,15.8
2023-04-20T03:04:13.582Z,17.3
2023-04-20T03:07:14.679Z,14.3
2023-04-20T03:10:13.561Z,16.8
2023-04-20T03:13:13.578Z,14.9
2023-04-20T03:16:13.601Z,15.2
2023-04-20T03:19:13.587Z,17.1
2023-04-20T03:22:13.577Z,15
2023-04-20T03:25:13.577Z,13.8
2023-04-20T03:28:13.594Z,15.2
2023-04-20T03:31:13.585Z,14.8
2023-04-20T03:34:13.596Z,16.7
2023-04-20T03:37:13.601Z,15.4
2023-04-20T03:40:13.600Z,14.6
2023-04-20T03:43:13.607Z,14.9
2023-04-20T03:46:13.620Z,14.3
2023-04-20T03:49:13.613Z,15.5
2023-04-20T03:52:13.617Z,16
2023-04-20T03:55:13.622Z,13.8
2023-04-20T03:58:13.627Z,14.7
2023-04-20T04:01:13.631Z,15.3
2023-04-20T04:04:13.965Z,15.3
2023-04-20T04:07:13.667Z,13.6
2023-04-20T04:10:13.644Z,13.8
2023-04-20T04:13:13.660Z,14.3
2023-04-20T04:16:13.648Z,14
2023-04-20T04:19:13.650Z,14.3
2023-04-20T04:22:13.655Z,13.6
2023-04-20T04:25:13.654Z,16.3
2023-04-20T04:28:13.683Z,14.4
2023-04-20T04:31:13.698Z,14.4
2023-04-20T04:34:13.680Z,16.4
2023-04-20T04:37:13.674Z,15.6
2023-04-20T04:40:13.675Z,15.5
2023-04-20T04:43:13.698Z,14.1
2023-04-20T04:46:13.719Z,16
2023-04-20T04:49:13.686Z,17.3
2023-04-20T04:52:13.697Z,14.4
2023-04-20T04:55:15.690Z,14.4
2023-04-20T04:58:13.718Z,14.3
2023-04-20T05:01:13.715Z,15.6
2023-04-20T05:04:13.836Z,16.1
2023-04-20T05:07:13.719Z,14.3
2023-04-20T05:10:15.154Z,16.2
2023-04-20T05:13:13.743Z,13.8
2023-04-20T05:16:13.778Z,15.8
2023-04-20T05:19:13.734Z,15.8
2023-04-20T05:22:13.740Z,15.7
2023-04-20T05:25:14.060Z,15.5
2023-04-20T05:28:13.760Z,15.3
2023-04-20T05:31:13.789Z,16.8
2023-04-20T05:34:13.753Z,15.6
2023-04-20T05:37:13.760Z,16.7
2023-04-20T05:40:13.760Z,15.3
2023-04-20T05:43:13.772Z,16.9
2023-04-20T05:46:13.786Z,15.5
2023-04-20T05:49:13.790Z,15.6
2023-04-20T05:52:13.777Z,16.3
2023-04-20T05:55:15.547Z,15.6
2023-04-20T05:58:13.803Z,15.4
2023-04-20T06:01:13.787Z,14.7
2023-04-20T06:04:14.011Z,16.5
2023-04-20T06:07:13.807Z,15.6
2023-04-20T06:10:13.813Z,15.6
2023-04-20T06:13:13.812Z,15
2023-04-20T06:16:13.863Z,14.4
2023-04-20T06:19:13.814Z,15.2
2023-04-20T06:22:13.843Z,14.7
2023-04-20T06:25:13.859Z,15.1
2023-04-20T06:28:13.827Z,15.2
2023-04-20T06:31:13.852Z,14
2023-04-20T06:34:13.823Z,13.9
2023-04-20T06:37:13.824Z,15.2
2023-04-20T06:40:16.083Z,14.9
2023-04-20T06:43:13.861Z,16.2
2023-04-20T06:46:13.874Z,15.7
2023-04-20T06:49:13.839Z,14.3
2023-04-20T06:52:13.839Z,15
2023-04-20T06:55:13.854Z,13.6
2023-04-20T06:58:13.852Z,13.1
2023-04-20T07:01:13.863Z,13.8
2023-04-20T07:04:13.873Z,13.7
2023-04-20T07:07:13.858Z,12.5
2023-04-20T07:10:13.856Z,11.9
2023-04-20T07:13:13.870Z,13.3
2023-04-20T07:16:13.888Z,11.6
2023-04-20T07:19:13.865Z,13.7
2023-04-20T07:22:13.881Z,11.2
2023-04-20T07:25:13.884Z,12.5
2023-04-20T07:28:13.913Z,11.5
2023-04-20T07:31:13.911Z,10.5
2023-04-20T07:34:13.924Z,10.7
2023-04-20T07:37:13.945Z,10.3
2023-04-20T07:40:13.947Z,11.1
2023-04-20T07:43:13.953Z,10.7
2023-04-20T07:46:13.963Z,9.8
2023-04-20T07:49:13.960Z,9.3
2023-04-20T07:52:17.119Z,10.5
2023-04-20T07:55:13.998Z,9.6
2023-04-20T07:58:13.979Z,9.6
2023-04-20T08:01:13.972Z,10.7
2023-04-20T08:04:14.174Z,10.1
2023-04-20T08:07:14.086Z,9.5
2023-04-20T08:10:13.996Z,10.1
2023-04-20T08:13:14.019Z,10.4
2023-04-20T08:16:14.036Z,10
2023-04-20T08:22:14.018Z,10
2023-04-20T08:25:14.024Z,10.2
2023-04-20T08:28:19.646Z,9.1
2023-04-20T08:31:14.036Z,9.3
2023-04-20T08:34:14.049Z,9.2
2023-04-20T08:37:14.046Z,9.7
2023-04-20T08:40:14.052Z,8.8
2023-04-20T08:43:14.059Z,9.7
2023-04-20T08:46:14.116Z,9.1
2023-04-20T08:49:14.064Z,9.3
2023-04-20T08:52:14.060Z,9.8
2023-04-20T08:55:14.066Z,8.7
2023-04-20T08:58:14.073Z,10
2023-04-20T09:01:15.753Z,8.5
2023-04-20T09:04:14.177Z,8.8
2023-04-20T09:07:14.084Z,8.4
2023-04-20T09:10:14.079Z,8.4
2023-04-20T09:13:14.096Z,8.1
2023-04-20T09:16:14.127Z,8.2
2023-04-20T09:19:14.121Z,7.9
2023-04-20T09:22:14.106Z,8.5
2023-04-20T09:25:14.108Z,7.6
2023-04-20T09:28:14.122Z,8.2
2023-04-20T09:31:15.034Z,8.3
2023-04-20T09:34:14.186Z,8.6
2023-04-20T09:37:14.131Z,8.4
2023-04-20T09:40:14.177Z,8
2023-04-20T09:43:15.360Z,8
2023-04-20T09:46:14.162Z,6.9
2023-04-20T09:49:14.193Z,7.6
2023-04-20T09:52:14.157Z,8.1
2023-04-20T09:55:14.162Z,7.6
2023-04-20T09:58:14.208Z,8
2023-04-20T10:01:14.215Z,8.1
2023-04-20T10:04:14.600Z,8.3
2023-04-20T10:07:14.177Z,8
2023-04-20T10:10:14.177Z,7.9
2023-04-20T10:13:14.259Z,8.7
2023-04-20T10:16:14.213Z,9
2023-04-20T10:19:14.190Z,7.9
2023-04-20T10:22:14.191Z,8.3
2023-04-20T10:25:14.196Z,8.6
2023-04-20T10:28:14.205Z,8.1
2023-04-20T10:31:14.242Z,7.8
2023-04-20T10:34:14.219Z,6.9
2023-04-20T10:37:14.230Z,7.2
2023-04-20T10:40:14.207Z,8
2023-04-20T10:43:14.217Z,7.9
2023-04-20T10:46:14.237Z,7.5
2023-04-20T10:49:14.275Z,7.6
2023-04-20T10:52:14.231Z,8.9
2023-04-20T10:55:14.236Z,7.6
2023-04-20T10:58:14.234Z,7.7
2023-04-20T11:01:14.246Z,9.1
2023-04-20T11:04:16.327Z,7.1
2023-04-20T11:07:14.251Z,8.1
2023-04-20T11:10:14.258Z,6.7
2023-04-20T11:13:14.256Z,6
2023-04-20T11:16:14.306Z,7.1
2023-04-20T11:19:14.264Z,6.4
2023-04-20T11:22:14.276Z,6.4
2023-04-20T11:25:14.280Z,7.5
2023-04-20T11:28:14.284Z,7.2
2023-04-20T11:31:14.385Z,8.2
2023-04-20T11:34:14.293Z,7.6
2023-04-20T11:37:14.292Z,8.5
2023-04-20T11:40:14.304Z,8.1
2023-04-20T11:43:14.305Z,8.6
2023-04-20T11:46:14.380Z,8.8
2023-04-20T11:49:14.309Z,8.2
2023-04-20T11:52:14.319Z,9.6
2023-04-20T11:55:14.320Z,9.1
2023-04-20T11:58:14.329Z,8.5
2023-04-20T12:01:14.327Z,8.8
2023-04-20T12:04:14.637Z,8.4
2023-04-20T12:07:14.348Z,8.1
2023-04-20T12:10:14.466Z,8.4
2023-04-20T12:13:14.374Z,8.4
2023-04-20T12:16:14.370Z,8.4
2023-04-20T12:19:14.366Z,8.6
2023-04-20T12:22:14.368Z,8.1
2023-04-20T12:25:14.374Z,8.6
2023-04-20T12:28:14.387Z,8.5
2023-04-20T12:31:14.414Z,8.5
2023-04-20T12:34:14.398Z,8.7
2023-04-20T12:37:14.392Z,10.2
2023-04-20T12:40:14.398Z,9.6
2023-04-20T12:43:14.397Z,8.9
2023-04-20T12:46:14.414Z,8
2023-04-20T12:49:14.426Z,8.3
2023-04-20T12:52:14.408Z,8.2
2023-04-20T12:55:14.412Z,7.6
2023-04-20T12:58:14.420Z,7.8
2023-04-20T13:01:14.470Z,7.4
2023-04-20T13:04:14.499Z,8.2
2023-04-20T13:07:14.430Z,8
2023-04-20T13:10:14.448Z,7.6
2023-04-20T13:13:14.462Z,7.6
2023-04-20T13:16:14.483Z,8.1
2023-04-20T13:19:14.467Z,7.7
2023-04-20T13:22:17.429Z,8.8
2023-04-20T13:25:14.468Z,8.1
2023-04-20T13:28:14.885Z,9.1
2023-04-20T13:31:14.467Z,9
2023-04-20T13:34:14.480Z,8.5
2023-04-20T13:37:14.481Z,8.8
2023-04-20T13:40:14.486Z,8.4
2023-04-20T13:43:14.487Z,8.8
2023-04-20T13:46:14.534Z,9.4
2023-04-20T13:49:14.493Z,8.8
2023-04-20T13:52:14.507Z,9.9
2023-04-20T13:55:14.501Z,9.3
2023-04-20T13:58:14.501Z,10.4
2023-04-20T14:01:14.536Z,9.7
2023-04-20T14:04:14.557Z,10
2023-04-20T14:07:14.534Z,9.6
2023-04-20T14:10:14.534Z,10.2
2023-04-20T14:13:14.536Z,10.1
2023-04-20T14:16:14.570Z,11.5
2023-04-20T14:19:14.541Z,12.1
2023-04-20T14:22:14.552Z,11.1
2023-04-20T14:25:14.561Z,13
2023-04-20T14:28:14.557Z,17.7
2023-04-20T14:31:14.596Z,18.2
2023-04-20T14:34:14.618Z,19.3
2023-04-20T14:37:14.586Z,17.8
2023-04-20T14:40:14.571Z,18.9
2023-04-20T14:43:14.579Z,18.8
2023-04-20T14:46:14.623Z,17.1
2023-04-20T14:49:14.628Z,17.4
2023-04-20T14:52:14.579Z,16
2023-04-20T14:55:14.594Z,16.6
2023-04-20T14:58:14.589Z,14.9
2023-04-20T15:01:14.607Z,16.2
2023-04-20T15:04:14.693Z,15.4
2023-04-20T15:07:14.611Z,14.2
2023-04-20T15:10:14.609Z,13.2
2023-04-20T15:13:14.624Z,12.3
2023-04-20T15:16:14.627Z,12.6
2023-04-20T15:19:14.627Z,11.8
2023-04-20T15:22:14.642Z,12.8
2023-04-20T15:25:14.631Z,13
2023-04-20T15:28:14.647Z,12.6
2023-04-20T15:31:14.842Z,12.1
2023-04-20T15:34:14.649Z,13.3
2023-04-20T15:37:14.654Z,13
2023-04-20T15:40:14.658Z,14.5
2023-04-20T15:43:14.671Z,12.9
2023-04-20T15:46:14.783Z,11.9
2023-04-20T15:49:14.678Z,11.8
2023-04-20T15:52:14.697Z,12.5
2023-04-20T15:55:14.694Z,13.2
2023-04-20T15:58:14.700Z,11.1
2023-04-20T16:01:14.747Z,12
2023-04-20T16:04:14.880Z,12
2023-04-20T16:07:14.708Z,13
2023-04-20T16:10:14.718Z,12.3
2023-04-20T16:13:14.711Z,11.5
2023-04-20T16:16:14.787Z,12.4
2023-04-20T16:19:14.728Z,14.2
2023-04-20T16:22:14.737Z,12.8
2023-04-20T16:25:14.730Z,13.2
2023-04-20T16:28:14.732Z,13.2
2023-04-20T16:31:14.763Z,13.7
2023-04-20T16:34:14.746Z,13.2
2023-04-20T16:37:14.752Z,14.6
2023-04-20T16:40:14.767Z,13.1
2023-04-20T16:43:14.778Z,14.6
2023-04-20T16:46:14.785Z,13.9
2023-04-20T16:49:14.773Z,15.6
2023-04-20T16:52:14.801Z,14.9
2023-04-20T16:55:14.785Z,14.4
2023-04-20T16:58:14.802Z,14.5
2023-04-20T17:01:14.848Z,15.7
2023-04-20T17:04:14.883Z,15.2
2023-04-20T17:07:14.813Z,15.5
2023-04-20T17:10:14.812Z,15.8
2023-04-20T17:13:14.821Z,15.3
2023-04-20T17:16:14.831Z,16.3
2023-04-20T17:19:14.823Z,16.9
2023-04-20T17:22:14.823Z,16.3
2023-04-20T17:25:14.829Z,16.2
2023-04-20T17:28:14.849Z,15.3
2023-04-20T17:31:14.850Z,16.1
2023-04-20T17:34:14.845Z,16.2
2023-04-20T17:37:14.848Z,15.8
2023-04-20T17:40:14.852Z,17.5
2023-04-20T17:43:14.857Z,18.1
2023-04-20T17:46:14.890Z,15.9
2023-04-20T17:49:14.866Z,17.3
2023-04-20T17:52:14.873Z,17.7
2023-04-20T17:55:14.885Z,17.2
2023-04-20T17:58:14.871Z,17.4
2023-04-20T18:01:14.913Z,17.9
2023-04-20T18:04:15.135Z,18.5
2023-04-20T18:07:14.900Z,17.5
2023-04-20T18:10:14.899Z,18.5
2023-04-20T18:13:14.905Z,16.8
2023-04-20T18:16:14.958Z,17.8
2023-04-20T18:19:14.912Z,18.2
2023-04-20T18:22:14.921Z,19.2
2023-04-20T18:25:14.925Z,18.3
2023-04-20T18:28:14.933Z,20.1
2023-04-20T18:31:14.944Z,19.4
2023-04-20T18:34:14.934Z,19.5
2023-04-20T18:37:14.970Z,21.3
2023-04-20T18:40:16.324Z,21
2023-04-20T18:43:14.959Z,22.4
2023-04-20T18:46:15.015Z,21
2023-04-20T18:49:14.967Z,22.4
2023-04-20T18:52:14.972Z,21.3
2023-04-20T18:55:14.965Z,21.7
2023-04-20T18:58:14.965Z,21.3
2023-04-20T19:01:15.015Z,22.5
2023-04-20T19:04:14.991Z,22.8
2023-04-20T19:07:15.004Z,21.5
2023-04-20T19:10:14.988Z,25.4
2023-04-20T19:13:14.984Z,23.8
2023-04-20T19:16:15.035Z,24
2023-04-20T19:19:15.010Z,27.3
2023-04-20T19:22:15.006Z,24.7
2023-04-20T19:25:15.017Z,27.3
2023-04-20T19:28:15.020Z,24.9
2023-04-20T19:31:15.035Z,27.1
2023-04-20T19:34:15.030Z,25.7
2023-04-20T19:37:15.258Z,26.2
2023-04-20T19:40:15.043Z,27.3
2023-04-20T19:43:15.048Z,27.4
2023-04-20T19:46:16.823Z,26
2023-04-20T19:49:15.061Z,29.8
2023-04-20T19:52:15.049Z,33.2
2023-04-20T19:55:15.065Z,28.7
2023-04-20T19:58:15.077Z,27.4
2023-04-20T20:01:15.088Z,28.3
2023-04-20T20:04:15.216Z,30.1
2023-04-20T20:07:15.083Z,28.9
2023-04-20T20:10:15.079Z,30.7
2023-04-20T20:13:15.078Z,32.8
2023-04-20T20:16:15.118Z,30
2023-04-20T20:19:15.082Z,33.2
2023-04-20T20:22:15.085Z,30
2023-04-20T20:25:15.081Z,30.9
2023-04-20T20:28:15.092Z,35.5
2023-04-20T20:31:15.132Z,38.3
2023-04-20T20:34:15.116Z,39
2023-04-20T20:37:15.123Z,39.1
2023-04-20T20:40:15.390Z,42.5
2023-04-20T20:43:15.105Z,45.6
2023-04-20T20:46:15.132Z,46.6
2023-04-20T20:49:15.103Z,47.9
2023-04-20T20:52:15.119Z,49.8
2023-04-20T20:55:15.127Z,49.2
2023-04-20T20:58:15.137Z,49.3
2023-04-20T21:01:15.149Z,45.9
2023-04-20T21:04:15.255Z,46.5
2023-04-20T21:07:15.136Z,46.4
2023-04-20T21:10:15.145Z,44.3
2023-04-20T21:13:15.145Z,43.4
2023-04-20T21:16:15.174Z,42.5
2023-04-20T21:19:15.166Z,40.4
2023-04-20T21:22:15.169Z,38
2023-04-20T21:25:15.164Z,36.7
2023-04-20T21:28:15.170Z,34.6
2023-04-20T21:31:15.169Z,31.8
2023-04-20T21:34:15.189Z,31.5
2023-04-20T21:37:15.173Z,28.3
2023-04-20T21:40:15.189Z,29.8
2023-04-20T21:43:15.184Z,28.2
2023-04-20T21:46:15.213Z,25.5
2023-04-20T21:49:15.207Z,25.9
2023-04-20T21:52:15.175Z,25.5
2023-04-20T21:55:15.193Z,23.8
2023-04-20T21:58:15.192Z,24
2023-04-20T22:01:15.216Z,24.2
2023-04-20T22:04:15.312Z,24.1
2023-04-20T22:07:15.227Z,23.7
2023-04-20T22:10:15.255Z,24.4
2023-04-20T22:13:15.259Z,25.2
2023-04-20T22:16:15.287Z,21.6
2023-04-20T22:19:15.284Z,21.5
2023-04-20T22:22:15.293Z,21.3
2023-04-20T22:25:15.303Z,23.9
2023-04-20T22:28:15.314Z,24.4
2023-04-20T22:31:15.335Z,22
2023-04-20T22:34:15.338Z,22.3
2023-04-20T22:37:15.337Z,23.1
2023-04-20T22:40:15.348Z,22.2
2023-04-20T22:43:15.363Z,22
2023-04-20T22:46:15.373Z,22.1
2023-04-20T22:49:15.361Z,22.2
2023-04-20T22:52:15.369Z,24
2023-04-20T22:55:15.378Z,22.8
2023-04-20T22:58:15.373Z,22.1
2023-04-20T23:01:15.390Z,20.8
2023-04-20T23:04:15.440Z,19.5
2023-04-20T23:07:15.390Z,20.9
2023-04-20T23:10:15.394Z,22.3
2023-04-20T23:13:15.384Z,22.4
2023-04-20T23:16:15.407Z,19.6
2023-04-20T23:19:15.401Z,19.2
2023-04-20T23:22:15.412Z,19
2023-04-20T23:25:15.403Z,22.1
2023-04-20T23:28:15.410Z,19
2023-04-20T23:31:15.441Z,19.3
2023-04-20T23:34:15.425Z,19
2023-04-20T23:37:15.423Z,20.4
2023-04-20T23:40:15.426Z,19
2023-04-20T23:43:15.440Z,19.7
2023-04-20T23:46:15.488Z,16.9
2023-04-20T23:49:15.450Z,18.4
2023-04-20T23:52:15.445Z,18.2
2023-04-20T23:55:15.438Z,18.6
2023-04-20T23:58:15.448Z,18.7
